createdAt,value
2022-10-11T00:01:59.571Z,151485.53
2022-10-11T00:04:27.335Z,151479.09
2022-10-11T00:06:54.944Z,151473.94
2022-10-11T00:09:23.971Z,151457.19
2022-10-11T00:11:51.644Z,151452.03
2022-10-11T00:14:19.241Z,151452.03
2022-10-11T00:16:46.871Z,151407.03
2022-10-11T00:19:14.794Z,151417.28
2022-10-11T00:21:42.516Z,151358.13
2022-10-11T00:24:12.697Z,151417.28
2022-10-11T00:26:46.414Z,151417.28
2022-10-11T00:29:14.662Z,151418.59
2022-10-11T00:31:42.398Z,151409.56
2022-10-11T00:34:11.383Z,151399.28
2022-10-11T00:36:39.112Z,151385.13
2022-10-11T00:39:07.083Z,151378.72
2022-10-11T00:41:34.818Z,151345.22
2022-10-11T00:44:15.854Z,151377.41
2022-10-11T00:46:45.839Z,151372.25
2022-10-11T00:49:19.304Z,151360.66
2022-10-11T00:51:51.771Z,151364.53
2022-10-11T00:54:25.259Z,151350.38
2022-10-11T00:56:57.299Z,151343.97
2022-10-11T00:59:30.656Z,151324.66
2022-10-11T01:01:58.602Z,151311.81
2022-10-11T01:04:26.229Z,151336.22
2022-10-11T01:06:55.651Z,151311.81
2022-10-11T01:09:23.533Z,151333.66
2022-10-11T01:11:53.021Z,151320.81
2022-10-11T01:14:36.115Z,151297.66
2022-10-11T01:17:11.819Z,151315.66
2022-10-11T01:19:55.973Z,151315.66
2022-10-11T01:22:47.198Z,151300.19
2022-10-11T01:25:21.844Z,151275.78
2022-10-11T01:28:17.712Z,151277.03
2022-10-11T01:30:48.049Z,151277.03
2022-10-11T01:33:26.489Z,151298.91
2022-10-11T01:36:04.604Z,151300.19
2022-10-11T01:38:39.063Z,151291.19
2022-10-11T01:41:10.708Z,151286.06
2022-10-11T01:43:40.376Z,151309.22
2022-10-11T01:46:10.355Z,151277.03
2022-10-11T01:48:48.281Z,151256.47
2022-10-11T01:51:16.559Z,151260.34
2022-10-11T01:54:05.360Z,151269.34
2022-10-11T01:56:47.704Z,151261.59
2022-10-11T01:59:29.814Z,151260.34
2022-10-11T02:02:11.706Z,151205.00
2022-10-11T02:04:46.688Z,151230.72
2022-10-11T02:07:23.109Z,151214.03
2022-10-11T02:09:57.941Z,151187.00
2022-10-11T02:12:32.417Z,151196.00
2022-10-11T02:15:03.428Z,151198.59
2022-10-11T02:17:40.467Z,151201.16
2022-10-11T02:20:13.951Z,151194.75
2022-10-11T02:22:45.275Z,151183.16
2022-10-11T02:25:18.340Z,151188.31
2022-10-11T02:27:48.801Z,151183.16
2022-10-11T02:30:17.290Z,151179.31
2022-10-11T02:32:48.052Z,151158.72
2022-10-11T02:35:15.895Z,151165.19
2022-10-11T02:37:49.143Z,151162.59
2022-10-11T02:40:21.690Z,151134.28
2022-10-11T02:42:54.579Z,151140.72
2022-10-11T02:45:27.619Z,151144.56
2022-10-11T02:47:57.703Z,151079.03
2022-10-11T02:50:25.632Z,151125.31
2022-10-11T02:52:53.217Z,151120.16
2022-10-11T02:55:21.363Z,151117.56
2022-10-11T02:57:49.034Z,151116.31
2022-10-11T03:00:16.913Z,151109.84
2022-10-11T03:02:44.718Z,151109.84
2022-10-11T03:05:13.871Z,151104.75
2022-10-11T03:07:41.903Z,151115.00
2022-10-11T03:10:10.523Z,151102.16
2022-10-11T03:12:38.134Z,151102.16
2022-10-11T03:15:06.892Z,151085.44
2022-10-11T03:17:37.203Z,151089.28
2022-10-11T03:20:06.265Z,151094.44
2022-10-11T03:22:35.326Z,151103.44
2022-10-11T03:25:04.585Z,151076.44
2022-10-11T03:27:32.679Z,151066.13
2022-10-11T03:30:00.475Z,151026.28
2022-10-11T03:32:28.591Z,151052.00
2022-10-11T03:34:56.183Z,151040.44
2022-10-11T03:37:23.941Z,151028.84
2022-10-11T03:39:53.064Z,151043.00
2022-10-11T03:42:20.835Z,151014.72
2022-10-11T03:44:49.533Z,150996.72
2022-10-11T03:47:17.191Z,151044.31
2022-10-11T03:49:44.831Z,151037.84
2022-10-11T03:52:12.747Z,151040.44
2022-10-11T03:54:40.368Z,151030.16
2022-10-11T03:57:09.402Z,151019.88
2022-10-11T03:59:37.077Z,151010.88
2022-10-11T04:02:04.932Z,150999.31
2022-10-11T04:04:32.914Z,150998.03
2022-10-11T04:07:00.567Z,151000.63
2022-10-11T04:09:28.259Z,150999.31
2022-10-11T04:11:56.297Z,150989.00
2022-10-11T04:14:25.289Z,150983.91
2022-10-11T04:16:52.981Z,150969.75
2022-10-11T04:19:20.894Z,150982.59
2022-10-11T04:21:49.097Z,150972.34
2022-10-11T04:24:16.735Z,150964.59
2022-10-11T04:26:44.398Z,150971.03
2022-10-11T04:29:12.071Z,150963.34
2022-10-11T04:31:41.082Z,150960.78
2022-10-11T04:34:08.638Z,150950.47
2022-10-11T04:36:36.427Z,150923.50
2022-10-11T04:39:04.303Z,150942.75
2022-10-11T04:41:32.110Z,150941.47
2022-10-11T04:43:59.717Z,150942.75
2022-10-11T04:46:27.532Z,150944.06
2022-10-11T04:48:56.873Z,150951.78
2022-10-11T04:51:24.979Z,150944.06
2022-10-11T04:53:52.654Z,150940.22
2022-10-11T04:56:20.419Z,150951.78
2022-10-11T04:58:49.399Z,150933.75
2022-10-11T05:01:17.010Z,150938.91
2022-10-11T05:03:44.695Z,150928.66
2022-10-11T05:06:14.291Z,150935.06
2022-10-11T05:08:42.759Z,150927.34
2022-10-11T05:11:16.129Z,150935.06
2022-10-11T05:13:45.750Z,150922.19
2022-10-11T05:16:14.389Z,150920.94
2022-10-11T05:18:42.262Z,150917.03
2022-10-11T05:21:18.540Z,150892.66
2022-10-11T05:23:47.838Z,150906.78
2022-10-11T05:26:15.663Z,150906.78
2022-10-11T05:28:43.387Z,150920.94
2022-10-11T05:31:11.167Z,150906.78
2022-10-11T05:33:38.817Z,150899.06
2022-10-11T05:36:07.976Z,150883.66
2022-10-11T05:38:37.654Z,150909.34
2022-10-11T05:41:06.436Z,150915.78
2022-10-11T05:43:34.097Z,150906.78
2022-10-11T05:46:02.070Z,150911.94
2022-10-11T05:48:29.855Z,150911.94
2022-10-11T05:51:00.329Z,150913.19
2022-10-11T05:53:28.145Z,150882.34
2022-10-11T05:55:57.725Z,150910.63
2022-10-11T05:58:25.953Z,150904.22
2022-10-11T06:00:54.847Z,150896.50
2022-10-11T06:03:22.583Z,150881.09
2022-10-11T06:05:54.481Z,150881.09
2022-10-11T06:08:24.460Z,150887.50
2022-10-11T06:10:52.267Z,150909.34
2022-10-11T06:13:21.416Z,150938.91
2022-10-11T06:15:49.126Z,150914.50
2022-10-11T06:18:16.804Z,150942.75
2022-10-11T06:20:44.419Z,150951.78
2022-10-11T06:23:12.117Z,150951.78
2022-10-11T06:25:39.725Z,150959.47
2022-10-11T06:28:07.388Z,150973.59
2022-10-11T06:30:36.447Z,150985.16
2022-10-11T06:33:05.071Z,151005.72
2022-10-11T06:35:32.785Z,151025.03
2022-10-11T06:38:00.504Z,151048.16
2022-10-11T06:40:28.180Z,151068.72
2022-10-11T06:42:55.980Z,151088.00
2022-10-11T06:45:23.879Z,151090.59
2022-10-11T06:47:52.900Z,151145.88
2022-10-11T06:50:40.781Z,151165.19
2022-10-11T06:53:08.789Z,151196.00
2022-10-11T06:55:36.636Z,151210.16
2022-10-11T06:58:04.286Z,151262.94
2022-10-11T07:00:32.007Z,151288.59
2022-10-11T07:03:01.003Z,151329.81
2022-10-11T07:05:29.387Z,151352.97
2022-10-11T07:07:57.258Z,151404.44
2022-10-11T07:10:25.012Z,151467.50
2022-10-11T07:12:52.738Z,151511.28
2022-10-11T07:15:21.001Z,151534.44
2022-10-11T07:17:48.775Z,151552.47
2022-10-11T07:20:18.004Z,151611.66
2022-10-11T07:22:45.729Z,151647.75
2022-10-11T07:25:13.413Z,151703.13
2022-10-11T07:27:41.119Z,151741.84
2022-10-11T07:30:09.769Z,151779.19
2022-10-11T07:32:37.419Z,151832.00
2022-10-11T07:35:05.737Z,151888.69
2022-10-11T07:37:35.831Z,151949.25
2022-10-11T07:40:03.643Z,152009.84
2022-10-11T07:42:31.357Z,152070.47
2022-10-11T07:44:59.418Z,152160.78
2022-10-11T07:47:27.115Z,152212.31
2022-10-11T07:49:54.820Z,152278.13
2022-10-11T07:52:22.502Z,152349.19
2022-10-11T07:54:51.591Z,152375.00
2022-10-11T07:57:19.844Z,152439.53
2022-10-11T07:59:50.219Z,152507.97
2022-10-11T08:02:18.240Z,152564.75
2022-10-11T08:04:45.863Z,152611.22
2022-10-11T08:07:13.602Z,152643.56
2022-10-11T08:09:41.338Z,152660.31
2022-10-11T08:12:10.934Z,152705.53
2022-10-11T08:14:38.628Z,152755.91
2022-10-11T08:17:06.327Z,152806.34
2022-10-11T08:19:34.064Z,152750.78
2022-10-11T08:22:01.937Z,152829.63
2022-10-11T08:24:30.544Z,152895.56
2022-10-11T08:27:00.250Z,152949.81
2022-10-11T08:29:29.311Z,152940.78
2022-10-11T08:31:56.957Z,152913.66
2022-10-11T08:34:24.798Z,153017.09
2022-10-11T08:36:52.431Z,153083.00
2022-10-11T08:39:20.059Z,153126.97
2022-10-11T08:41:52.333Z,153165.81
2022-10-11T08:44:58.385Z,153112.78
2022-10-11T08:47:28.194Z,153173.56
2022-10-11T08:49:57.343Z,153178.72
2022-10-11T08:52:29.440Z,153202.00
2022-10-11T08:55:00.680Z,153262.84
2022-10-11T08:57:31.060Z,153306.84
2022-10-11T09:00:03.414Z,153253.81
2022-10-11T09:03:06.440Z,153346.97
2022-10-11T09:05:32.198Z,153403.94
2022-10-11T09:08:09.446Z,153416.84
2022-10-11T09:10:54.025Z,153415.59
2022-10-11T09:13:34.721Z,153469.97
2022-10-11T09:16:14.290Z,153485.47
2022-10-11T09:19:02.536Z,153512.66
2022-10-11T09:21:40.893Z,153503.59
2022-10-11T09:24:31.751Z,153552.81
2022-10-11T09:27:06.900Z,153593.00
2022-10-11T09:29:51.416Z,153669.41
2022-10-11T09:32:21.935Z,153481.63
2022-10-11T09:34:56.873Z,153352.16
2022-10-11T09:37:32.635Z,153475.09
2022-10-11T09:40:08.748Z,153542.47
2022-10-11T09:42:36.459Z,153626.69
2022-10-11T09:45:15.136Z,153591.72
2022-10-11T09:47:44.392Z,153703.09
2022-10-11T09:50:17.490Z,153736.81
2022-10-11T09:52:49.876Z,153815.81
2022-10-11T09:55:33.304Z,153883.22
2022-10-11T09:58:01.485Z,153824.88
2022-10-11T10:00:33.450Z,153889.72
2022-10-11T10:03:04.720Z,153933.78
2022-10-11T10:05:34.144Z,153922.13
2022-10-11T10:08:08.127Z,153862.47
2022-10-11T10:10:39.653Z,153918.25
2022-10-11T10:13:19.323Z,153887.13
2022-10-11T10:15:48.770Z,153919.56
2022-10-11T10:18:24.740Z,153957.16
2022-10-11T10:20:54.887Z,153924.72
2022-10-11T10:23:25.680Z,153950.66
2022-10-11T10:25:54.783Z,153940.31
2022-10-11T10:28:24.598Z,153906.59
2022-10-11T10:30:54.647Z,153901.38
2022-10-11T10:33:25.533Z,153909.19
2022-10-11T10:35:57.694Z,153923.44
2022-10-11T10:38:30.220Z,153981.78
2022-10-11T10:41:02.752Z,153932.50
2022-10-11T10:43:34.403Z,153920.84
2022-10-11T10:46:37.720Z,153826.16
2022-10-11T10:52:19.571Z,153771.78
2022-10-11T10:54:57.473Z,153769.19
2022-10-11T10:57:30.159Z,153782.13
2022-10-11T11:00:11.730Z,153916.97
2022-10-11T11:02:47.765Z,153923.44
2022-10-11T11:05:27.094Z,153944.19
2022-10-11T11:08:04.133Z,153891.06
2022-10-11T11:10:37.377Z,153811.94
2022-10-11T11:13:20.734Z,153999.91
2022-10-11T11:15:59.390Z,154112.72
2022-10-11T11:18:33.044Z,154204.88
2022-10-11T11:21:25.017Z,154287.88
2022-10-11T11:24:03.500Z,154274.91
2022-10-11T11:26:44.245Z,154238.56
2022-10-11T11:29:22.807Z,154265.84
2022-10-11T11:32:08.000Z,153966.22
2022-10-11T11:34:41.076Z,153971.38
2022-10-11T11:37:22.800Z,154033.63
2022-10-11T11:39:55.231Z,153997.31
2022-10-11T11:42:27.595Z,153841.75
2022-10-11T11:44:55.488Z,153845.63
2022-10-11T11:47:30.277Z,153866.34
2022-10-11T11:50:00.887Z,153856.00
2022-10-11T11:52:34.904Z,153846.94
2022-10-11T11:55:09.930Z,153844.34
2022-10-11T11:57:53.490Z,153800.28
2022-10-11T12:00:23.070Z,153883.22
2022-10-11T12:02:54.374Z,154055.66
2022-10-11T12:05:25.087Z,154217.81
2022-10-11T12:07:58.536Z,154234.69
2022-10-11T12:10:31.225Z,154259.31
2022-10-11T12:13:17.370Z,154189.28
2022-10-11T12:16:00.397Z,154217.81
2022-10-11T12:18:29.192Z,154204.88
2022-10-11T12:21:03.850Z,154260.66
2022-10-11T12:23:42.176Z,154172.41
2022-10-11T12:26:43.965Z,154062.16
2022-10-11T12:29:29.122Z,154043.97
2022-10-11T12:32:53.490Z,154139.94
2022-10-11T12:36:04.140Z,154229.50
2022-10-11T12:38:39.663Z,154348.84
2022-10-11T12:41:39.144Z,154342.38
2022-10-11T12:44:21.289Z,154356.66
2022-10-11T12:47:22.665Z,154373.53
2022-10-11T12:50:11.221Z,154243.78
2022-10-11T12:52:51.482Z,154428.06
2022-10-11T12:55:43.543Z,154472.22
2022-10-11T12:58:30.254Z,154204.88
2022-10-11T13:01:16.639Z,154110.13
2022-10-11T13:03:47.443Z,154282.72
2022-10-11T13:06:19.067Z,154461.81
2022-10-11T13:08:53.249Z,154521.56
2022-10-11T13:11:25.363Z,154598.16
2022-10-11T13:13:56.617Z,154748.84
2022-10-11T13:16:26.759Z,154579.97
2022-10-11T13:18:58.664Z,154677.34
2022-10-11T13:21:35.986Z,154768.31
2022-10-11T13:24:10.650Z,154776.13
2022-10-11T13:26:39.915Z,154724.16
2022-10-11T13:29:16.596Z,154751.47
2022-10-11T13:31:46.644Z,154666.97
2022-10-11T13:34:17.571Z,154661.78
2022-10-11T13:36:47.558Z,154655.31
2022-10-11T13:39:30.945Z,154612.44
2022-10-11T13:42:01.922Z,154660.44
2022-10-11T13:44:33.519Z,154773.50
2022-10-11T13:47:01.458Z,154861.88
2022-10-11T13:49:37.561Z,154865.75
2022-10-11T13:52:08.283Z,154841.06
2022-10-11T13:54:55.583Z,154789.13
2022-10-11T13:57:34.772Z,154743.66
2022-10-11T14:00:04.195Z,154731.97
2022-10-11T14:02:33.816Z,154747.53
2022-10-11T14:05:01.581Z,154720.28
2022-10-11T14:07:36.947Z,154709.81
2022-10-11T14:10:06.649Z,154735.84
2022-10-11T14:12:39.596Z,154692.97
2022-10-11T14:15:24.087Z,154724.16
2022-10-11T14:17:52.257Z,154695.50
2022-10-11T14:20:23.552Z,154703.31
2022-10-11T14:22:52.123Z,154643.63
2022-10-11T14:25:20.060Z,154605.94
2022-10-11T14:27:49.774Z,154613.72
2022-10-11T14:30:27.614Z,154590.34
2022-10-11T14:32:57.791Z,154503.34
2022-10-11T14:35:27.887Z,154411.19
2022-10-11T14:37:55.717Z,154417.66
2022-10-11T14:40:25.263Z,154448.81
2022-10-11T14:42:55.066Z,154463.16
2022-10-11T14:45:22.758Z,154407.25
2022-10-11T14:47:51.726Z,154399.50
2022-10-11T14:50:37.751Z,154335.91
2022-10-11T14:53:06.164Z,154178.94
2022-10-11T14:55:34.154Z,154217.81
2022-10-11T14:58:03.595Z,154176.28
2022-10-11T15:00:33.003Z,154127.00
2022-10-11T15:03:00.695Z,154116.59
2022-10-11T15:05:33.879Z,154107.53
2022-10-11T15:08:02.132Z,154071.25
2022-10-11T15:10:34.670Z,154085.50
2022-10-11T15:13:04.986Z,154036.25
2022-10-11T15:15:35.458Z,154010.31
2022-10-11T15:18:05.463Z,154001.22
2022-10-11T15:20:35.791Z,153948.03
2022-10-11T15:23:03.676Z,153949.38
2022-10-11T15:25:32.054Z,153950.66
2022-10-11T15:27:59.988Z,153913.06
2022-10-11T15:30:31.320Z,153910.44
2022-10-11T15:32:59.398Z,153827.50
2022-10-11T15:35:29.659Z,153823.63
2022-10-11T15:37:59.546Z,153767.84
2022-10-11T15:40:31.783Z,153727.75
2022-10-11T15:42:59.373Z,153697.91
2022-10-11T15:45:30.734Z,153681.06
2022-10-11T15:47:58.761Z,153662.94
2022-10-11T15:50:36.671Z,153650.00
2022-10-11T15:53:05.740Z,153653.88
2022-10-11T15:55:35.024Z,153627.97
2022-10-11T15:58:03.147Z,153616.31
2022-10-11T16:00:32.269Z,153577.47
2022-10-11T16:03:00.410Z,153564.50
2022-10-11T16:05:28.865Z,153520.44
2022-10-11T16:07:56.582Z,153495.84
2022-10-11T16:10:24.323Z,153469.97
2022-10-11T16:12:52.015Z,153396.16
2022-10-11T16:15:19.893Z,153402.63
2022-10-11T16:17:49.072Z,153336.66
2022-10-11T16:20:21.965Z,153336.66
2022-10-11T16:22:50.232Z,153310.75
2022-10-11T16:25:18.327Z,153299.09
2022-10-11T16:27:46.160Z,153187.75
2022-10-11T16:30:15.701Z,153168.38
2022-10-11T16:32:44.437Z,153147.72
2022-10-11T16:35:15.188Z,153130.88
2022-10-11T16:37:43.076Z,153090.78
2022-10-11T16:40:12.097Z,153015.78
2022-10-11T16:42:40.519Z,152966.63
2022-10-11T16:45:09.218Z,152927.88
2022-10-11T16:47:36.879Z,152860.66
2022-10-11T16:50:06.064Z,152836.09
2022-10-11T16:52:35.137Z,152803.75
2022-10-11T16:55:03.001Z,152768.84
2022-10-11T16:57:30.663Z,152737.84
2022-10-11T16:59:58.462Z,152705.53
2022-10-11T17:02:32.135Z,152652.59
2022-10-11T17:05:00.309Z,152644.84
2022-10-11T17:07:28.338Z,152617.72
2022-10-11T17:09:57.986Z,152576.38
2022-10-11T17:12:26.030Z,152531.19
2022-10-11T17:14:54.157Z,152504.06
2022-10-11T17:17:22.162Z,152478.22
2022-10-11T17:19:49.822Z,152449.88
2022-10-11T17:22:19.411Z,152400.81
2022-10-11T17:24:47.444Z,152378.84
2022-10-11T17:27:16.608Z,152341.41
2022-10-11T17:29:44.335Z,152310.38
2022-10-11T17:32:12.239Z,152318.16
2022-10-11T17:34:39.839Z,152288.47
2022-10-11T17:37:09.945Z,152244.63
2022-10-11T17:39:37.752Z,152230.44
2022-10-11T17:42:07.520Z,152238.13
2022-10-11T17:44:37.271Z,152222.66
2022-10-11T17:47:04.979Z,152196.88
2022-10-11T17:49:32.949Z,152176.25
2022-10-11T17:52:00.530Z,152141.41
2022-10-11T17:54:28.250Z,152109.19
2022-10-11T17:56:55.986Z,152120.78
2022-10-11T17:59:27.425Z,152062.75
2022-10-11T18:01:56.679Z,152074.34
2022-10-11T18:04:27.054Z,152065.34
2022-10-11T18:06:55.284Z,152058.84
2022-10-11T18:09:24.708Z,152003.44
2022-10-11T18:11:52.743Z,152021.47
2022-10-11T18:14:21.156Z,151973.78
2022-10-11T18:16:48.931Z,152002.16
2022-10-11T18:19:17.986Z,151998.25
2022-10-11T18:21:45.761Z,151994.41
2022-10-11T18:24:16.326Z,151969.94
2022-10-11T18:26:45.097Z,151962.19
2022-10-11T18:29:13.613Z,151944.16
2022-10-11T18:31:42.248Z,151928.66
2022-10-11T18:34:11.483Z,151906.78
2022-10-11T18:36:40.781Z,151905.44
2022-10-11T18:39:11.082Z,151887.44
2022-10-11T18:41:39.945Z,151869.38
2022-10-11T18:44:10.887Z,151859.06
2022-10-11T18:46:38.538Z,151857.78
2022-10-11T18:49:06.374Z,151824.28
2022-10-11T18:51:35.710Z,151823.00
2022-10-11T18:54:06.346Z,151824.28
2022-10-11T18:56:36.459Z,151817.84
2022-10-11T18:59:05.086Z,151799.81
2022-10-11T19:01:35.629Z,151789.47
2022-10-11T19:04:04.474Z,151765.03
2022-10-11T19:06:33.905Z,151735.38
2022-10-11T19:09:05.140Z,151766.28
2022-10-11T19:11:33.653Z,151748.28
2022-10-11T19:14:03.054Z,151780.47
2022-10-11T19:16:31.149Z,151739.25
2022-10-11T19:18:59.322Z,151746.97
2022-10-11T19:21:27.630Z,151737.94
2022-10-11T19:23:56.717Z,151732.78
2022-10-11T19:26:28.776Z,151718.66
2022-10-11T19:28:58.209Z,151692.84
2022-10-11T19:31:26.449Z,151664.50
2022-10-11T19:33:54.145Z,151664.50
2022-10-11T19:36:21.946Z,151645.16
2022-10-11T19:38:51.329Z,151642.59
2022-10-11T19:41:20.851Z,151631.00
2022-10-11T19:43:51.318Z,151618.13
2022-10-11T19:46:44.542Z,151616.81
2022-10-11T19:49:09.118Z,151592.38
2022-10-11T19:51:38.098Z,151596.22
2022-10-11T19:54:07.993Z,151587.22
2022-10-11T19:56:36.130Z,151576.91
2022-10-11T19:59:06.588Z,151542.13
2022-10-11T20:01:36.409Z,151575.63
2022-10-11T20:04:06.635Z,151547.28
2022-10-11T20:06:38.485Z,151557.63
2022-10-11T20:11:54.796Z,151530.56
2022-10-11T20:14:23.886Z,151530.56
2022-10-11T20:16:52.180Z,151531.88
2022-10-11T20:19:22.860Z,151518.97
2022-10-11T20:21:54.316Z,151497.13
2022-10-11T20:24:21.906Z,151493.22
2022-10-11T20:26:49.549Z,151470.06
2022-10-11T20:29:17.220Z,151472.63
2022-10-11T20:31:46.319Z,151470.06
2022-10-11T20:34:13.977Z,151454.63
2022-10-11T20:36:42.990Z,151418.59
2022-10-11T20:39:14.919Z,151427.63
2022-10-11T20:41:42.923Z,151426.28
2022-10-11T20:44:13.040Z,151413.44
2022-10-11T20:46:40.763Z,151421.13
2022-10-11T20:49:12.047Z,151387.72
2022-10-11T20:51:41.453Z,151409.56
2022-10-11T20:54:10.945Z,151394.13
2022-10-11T20:56:39.074Z,151377.41
2022-10-11T20:59:07.122Z,151369.72
2022-10-11T21:01:37.037Z,151364.53
2022-10-11T21:04:07.395Z,151365.81
2022-10-11T21:06:36.459Z,151370.97
2022-10-11T21:09:04.416Z,151354.22
2022-10-11T21:11:35.059Z,151359.41
2022-10-11T21:14:04.710Z,151310.50
2022-10-11T21:16:33.332Z,151346.53
2022-10-11T21:19:02.597Z,151336.22
2022-10-11T21:21:31.331Z,151318.22
2022-10-11T21:24:02.473Z,151301.50
2022-10-11T21:26:31.274Z,151313.06
2022-10-11T21:29:00.189Z,151307.91
2022-10-11T21:31:32.920Z,151302.75
2022-10-11T21:34:01.815Z,151289.91
2022-10-11T21:36:29.541Z,151297.66
2022-10-11T21:38:57.681Z,151296.34
2022-10-11T21:41:29.830Z,151292.50
2022-10-11T21:43:58.414Z,151300.19
2022-10-11T21:46:47.708Z,151277.03
2022-10-11T21:49:16.123Z,151270.59
2022-10-11T21:51:43.857Z,151277.03
2022-10-11T21:54:12.141Z,151275.78
2022-10-11T21:56:41.691Z,151259.03
2022-10-11T21:59:12.233Z,151269.34
2022-10-11T22:01:41.740Z,151266.78
2022-10-11T22:04:09.823Z,151196.00
2022-10-11T22:06:39.053Z,151241.03
2022-10-11T22:09:07.797Z,151246.19
2022-10-11T22:11:36.281Z,151250.03
2022-10-11T22:14:05.561Z,151225.63
2022-10-11T22:16:34.314Z,151189.59
2022-10-11T22:19:02.099Z,151217.88
2022-10-11T22:21:29.917Z,151221.72
2022-10-11T22:23:57.899Z,151223.03
2022-10-11T22:26:29.895Z,151201.16
2022-10-11T22:28:57.959Z,151188.31
2022-10-11T22:31:27.993Z,151165.19
2022-10-11T22:33:55.914Z,151160.03
2022-10-11T22:36:24.243Z,151157.44
2022-10-11T22:38:52.707Z,151152.28
2022-10-11T22:41:20.467Z,151154.88
2022-10-11T22:43:48.365Z,151143.28
2022-10-11T22:46:15.982Z,151161.28
2022-10-11T22:48:44.999Z,151147.13
2022-10-11T22:51:12.807Z,151133.00
2022-10-11T22:53:40.428Z,151138.13
2022-10-11T22:56:09.313Z,151121.41
2022-10-11T22:58:37.047Z,151121.41
2022-10-11T23:01:09.017Z,151130.47
2022-10-11T23:03:36.788Z,151145.88
2022-10-11T23:06:06.512Z,151126.56
2022-10-11T23:08:34.503Z,151085.44
2022-10-11T23:11:04.624Z,151085.44
2022-10-11T23:13:32.564Z,151118.88
2022-10-11T23:16:00.352Z,151086.69
2022-10-11T23:18:28.122Z,151094.44
2022-10-11T23:20:55.924Z,151109.84
2022-10-11T23:23:24.966Z,151107.31
2022-10-11T23:26:01.483Z,151084.19
2022-10-11T23:28:29.217Z,151089.28
2022-10-11T23:30:57.013Z,151070.03
2022-10-11T23:33:24.763Z,151067.44
2022-10-11T23:35:52.518Z,151067.44
2022-10-11T23:38:20.163Z,151072.56
2022-10-11T23:40:49.158Z,151068.72
2022-10-11T23:43:16.914Z,151045.56
2022-10-11T23:45:45.129Z,151082.88
2022-10-11T23:48:13.133Z,151089.28
2022-10-11T23:50:40.952Z,151070.03
2022-10-11T23:53:08.602Z,151085.44
2022-10-11T23:55:36.554Z,151084.19
2022-10-11T23:58:05.561Z,151018.59
